createdAt,value
2023-02-05T00:00:49.488Z,101317.63
2023-02-05T00:03:38.509Z,101318.34
2023-02-05T00:06:06.664Z,101340.31
2023-02-05T00:08:35.086Z,101342.91
2023-02-05T00:11:09.311Z,101363.75
2023-02-05T00:13:40.680Z,101350.41
2023-02-05T00:16:18.581Z,101363.56
2023-02-05T00:18:46.374Z,101360.63
2023-02-05T00:21:15.851Z,101365.97
2023-02-05T00:23:43.866Z,101355.66
2023-02-05T00:26:13.517Z,101369.56
2023-02-05T00:28:42.269Z,101383.69
2023-02-05T00:31:18.745Z,101375.31
2023-02-05T00:33:47.612Z,101388.31
2023-02-05T00:36:17.111Z,101390.88
2023-02-05T00:38:46.821Z,101392.25
2023-02-05T00:41:15.822Z,101381.56
2023-02-05T00:43:44.082Z,101390.50
2023-02-05T00:46:14.159Z,101385.78
2023-02-05T00:48:42.791Z,101384.06
2023-02-05T00:51:11.608Z,101386.38
2023-02-05T00:53:40.635Z,101387.78
2023-02-05T00:56:08.635Z,101382.16
2023-02-05T00:58:36.738Z,101370.84
2023-02-05T01:01:05.395Z,101373.56
2023-02-05T01:03:33.642Z,101363.81
2023-02-05T01:06:03.285Z,101375.41
2023-02-05T01:08:30.863Z,101375.66
2023-02-05T01:10:59.363Z,101373.00
2023-02-05T01:13:27.141Z,101379.78
2023-02-05T01:15:55.501Z,101397.25
2023-02-05T01:18:23.098Z,101376.38
2023-02-05T01:20:51.049Z,101372.72
2023-02-05T01:23:18.564Z,101369.38
2023-02-05T01:25:46.403Z,101372.81
2023-02-05T01:28:15.715Z,101368.09
2023-02-05T01:30:49.645Z,101369.69
2023-02-05T01:33:18.737Z,101370.28
2023-02-05T01:35:47.038Z,101363.25
2023-02-05T01:38:15.651Z,101356.69
2023-02-05T01:40:43.610Z,101355.66
2023-02-05T01:43:17.465Z,101347.19
2023-02-05T01:46:25.821Z,101360.75
2023-02-05T01:48:57.335Z,101356.91
2023-02-05T01:51:29.065Z,101354.84
2023-02-05T01:53:57.403Z,101353.88
2023-02-05T01:56:35.720Z,101364.91
2023-02-05T01:59:27.865Z,101367.69
2023-02-05T02:01:56.802Z,101367.22
2023-02-05T02:04:42.062Z,101378.00
2023-02-05T02:07:20.312Z,101375.91
2023-02-05T02:09:49.395Z,101371.13
2023-02-05T02:12:24.282Z,101363.56
2023-02-05T02:14:57.177Z,101369.06
2023-02-05T02:17:26.898Z,101375.28
2023-02-05T02:20:02.756Z,101385.13
2023-02-05T02:22:48.050Z,101376.66
2023-02-05T02:26:24.264Z,101362.59
2023-02-05T02:28:59.484Z,101370.97
2023-02-05T02:31:50.472Z,101360.66
2023-02-05T02:34:26.986Z,101376.34
2023-02-05T02:37:03.887Z,101384.72
2023-02-05T02:40:04.484Z,101374.66
2023-02-05T02:42:43.345Z,101384.28
2023-02-05T02:45:14.616Z,101361.19
2023-02-05T02:47:53.709Z,101354.19
2023-02-05T02:50:37.154Z,101369.53
2023-02-05T02:53:13.692Z,101363.09
2023-02-05T02:55:43.943Z,101365.19
2023-02-05T02:58:23.133Z,101366.56
2023-02-05T03:00:54.860Z,101374.47
2023-02-05T03:03:26.722Z,101383.84
2023-02-05T03:05:58.653Z,101372.19
2023-02-05T03:08:45.435Z,101378.94
2023-02-05T03:11:16.087Z,101383.63
2023-02-05T03:13:45.714Z,101388.53
2023-02-05T03:16:18.399Z,101387.97
2023-02-05T03:18:47.929Z,101387.97
2023-02-05T03:21:43.468Z,101389.88
2023-02-05T03:24:11.659Z,101395.75
2023-02-05T03:26:39.636Z,101409.25
2023-02-05T03:29:21.258Z,101404.69
2023-02-05T03:32:46.537Z,101409.03
2023-02-05T03:35:54.333Z,101421.28
2023-02-05T03:38:52.108Z,101428.50
2023-02-05T03:41:55.842Z,101431.47
2023-02-05T03:44:42.585Z,101430.34
2023-02-05T03:47:49.422Z,101430.34
2023-02-05T03:50:52.495Z,101437.91
2023-02-05T03:53:36.342Z,101439.03
2023-02-05T03:56:23.245Z,101446.69
2023-02-05T03:58:55.204Z,101437.31
2023-02-05T04:01:24.869Z,101444.53
2023-02-05T04:03:52.683Z,101448.53
2023-02-05T04:06:21.307Z,101448.88
2023-02-05T04:08:51.586Z,101444.63
2023-02-05T04:11:19.549Z,101456.22
2023-02-05T04:13:48.184Z,101444.63
2023-02-05T04:16:16.239Z,101449.78
2023-02-05T04:18:44.075Z,101449.34
2023-02-05T04:21:11.905Z,101451.97
2023-02-05T04:23:42.198Z,101441.66
2023-02-05T04:26:10.448Z,101463.06
2023-02-05T04:28:45.108Z,101471.56
2023-02-05T04:31:13.590Z,101466.03
2023-02-05T04:33:43.081Z,101454.50
2023-02-05T04:36:14.426Z,101464.22
2023-02-05T04:38:42.015Z,101475.44
2023-02-05T04:41:09.899Z,101468.34
2023-02-05T04:43:37.602Z,101471.31
2023-02-05T04:46:11.100Z,101466.03
2023-02-05T04:48:39.279Z,101466.53
2023-02-05T04:51:13.135Z,101477.06
2023-02-05T04:53:41.505Z,101472.47
2023-02-05T04:56:15.705Z,101470.97
2023-02-05T04:58:44.509Z,101476.22
2023-02-05T05:01:16.689Z,101480.94
2023-02-05T05:03:44.967Z,101481.38
2023-02-05T05:06:14.227Z,101482.75
2023-02-05T05:08:42.409Z,101486.28
2023-02-05T05:11:18.108Z,101483.66
2023-02-05T05:13:46.412Z,101472.44
2023-02-05T05:16:14.437Z,101478.97
2023-02-05T05:18:42.389Z,101472.22
2023-02-05T05:21:10.711Z,101474.63
2023-02-05T05:23:38.588Z,101469.56
2023-02-05T05:26:12.225Z,101480.31
2023-02-05T05:28:40.071Z,101491.16
2023-02-05T05:31:16.927Z,101492.63
2023-02-05T05:33:44.459Z,101497.81
2023-02-05T05:36:12.901Z,101498.94
2023-02-05T05:38:40.705Z,101498.72
2023-02-05T05:41:36.654Z,101501.00
2023-02-05T05:44:04.456Z,101519.06
2023-02-05T05:46:32.770Z,101505.09
2023-02-05T05:49:02.692Z,101507.94
2023-02-05T05:51:32.775Z,101526.47
2023-02-05T05:54:00.868Z,101517.81
2023-02-05T05:56:29.036Z,101517.00
2023-02-05T05:58:56.566Z,101525.13
2023-02-05T06:01:24.432Z,101521.69
2023-02-05T06:03:51.962Z,101534.19
2023-02-05T06:06:19.965Z,101533.47
2023-02-05T06:08:47.557Z,101537.84
2023-02-05T06:11:15.799Z,101531.44
2023-02-05T06:13:43.646Z,101533.50
2023-02-05T06:16:11.893Z,101538.09
2023-02-05T06:18:39.541Z,101534.22
2023-02-05T06:21:07.476Z,101540.59
2023-02-05T06:23:35.210Z,101538.06
2023-02-05T06:26:03.146Z,101544.44
2023-02-05T06:28:30.595Z,101546.03
2023-02-05T06:30:58.536Z,101545.16
2023-02-05T06:33:26.102Z,101548.50
2023-02-05T06:35:53.935Z,101554.78
2023-02-05T06:38:21.493Z,101565.59
2023-02-05T06:40:49.467Z,101557.81
2023-02-05T06:43:16.912Z,101560.66
2023-02-05T06:45:44.693Z,101567.44
2023-02-05T06:48:12.346Z,101572.22
2023-02-05T06:50:40.312Z,101563.09
2023-02-05T06:53:07.752Z,101567.88
2023-02-05T06:55:37.251Z,101575.44
2023-02-05T06:58:05.090Z,101572.59
2023-02-05T07:00:33.052Z,101580.16
2023-02-05T07:03:00.615Z,101574.09
2023-02-05T07:05:28.406Z,101584.00
2023-02-05T07:07:55.925Z,101583.66
2023-02-05T07:10:23.684Z,101580.47
2023-02-05T07:12:51.186Z,101578.88
2023-02-05T07:15:19.301Z,101588.78
2023-02-05T07:17:46.874Z,101581.03
2023-02-05T07:20:16.734Z,101590.09
2023-02-05T07:22:44.083Z,101582.44
2023-02-05T07:25:11.830Z,101583.06
2023-02-05T07:27:39.294Z,101576.28
2023-02-05T07:30:07.947Z,101575.72
2023-02-05T07:32:36.093Z,101579.75
2023-02-05T07:35:04.136Z,101572.44
2023-02-05T07:37:31.601Z,101584.84
2023-02-05T07:39:59.328Z,101592.56
2023-02-05T07:42:26.867Z,101594.25
2023-02-05T07:44:58.961Z,101589.78
2023-02-05T07:47:26.964Z,101603.91
2023-02-05T07:49:55.133Z,101611.69
2023-02-05T07:52:22.772Z,101608.00
2023-02-05T07:54:50.823Z,101605.47
2023-02-05T07:57:18.381Z,101610.63
2023-02-05T07:59:46.187Z,101605.72
2023-02-05T08:02:13.771Z,101600.56
2023-02-05T08:04:42.180Z,101600.25
2023-02-05T08:07:13.155Z,101615.81
2023-02-05T08:09:41.115Z,101624.19
2023-02-05T08:12:08.929Z,101614.94
2023-02-05T08:14:36.989Z,101611.97
2023-02-05T08:17:06.265Z,101620.00
2023-02-05T08:19:34.196Z,101622.97
2023-02-05T08:22:01.642Z,101620.19
2023-02-05T08:24:31.349Z,101610.69
2023-02-05T08:26:59.049Z,101624.53
2023-02-05T08:29:26.882Z,101623.75
2023-02-05T08:31:54.357Z,101629.38
2023-02-05T08:34:22.241Z,101619.41
2023-02-05T08:36:49.695Z,101621.69
2023-02-05T08:39:17.525Z,101617.81
2023-02-05T08:41:44.945Z,101635.31
2023-02-05T08:44:13.121Z,101621.31
2023-02-05T08:46:49.763Z,101621.41
2023-02-05T08:49:19.101Z,101615.69
2023-02-05T08:51:47.389Z,101606.78
2023-02-05T08:54:15.740Z,101624.78
2023-02-05T08:56:45.383Z,101613.41
2023-02-05T08:59:13.482Z,101620.97
2023-02-05T09:01:43.958Z,101638.97
2023-02-05T09:04:18.189Z,101621.78
2023-02-05T09:06:45.854Z,101630.06
2023-02-05T09:09:14.873Z,101635.56
2023-02-05T09:11:43.000Z,101626.84
2023-02-05T09:14:10.968Z,101627.53
2023-02-05T09:16:40.086Z,101626.63
2023-02-05T09:19:08.434Z,101646.09
2023-02-05T09:21:36.121Z,101636.69
2023-02-05T09:24:04.407Z,101644.03
2023-02-05T09:26:32.016Z,101647.94
2023-02-05T09:29:00.828Z,101641.19
2023-02-05T09:31:28.583Z,101646.09
2023-02-05T09:33:57.382Z,101637.41
2023-02-05T09:36:25.272Z,101637.41
2023-02-05T09:39:11.840Z,101645.44
2023-02-05T09:42:20.455Z,101644.53
2023-02-05T09:45:52.070Z,101621.94
2023-02-05T09:48:54.977Z,101620.53
2023-02-05T09:51:39.019Z,101608.84
2023-02-05T09:54:34.185Z,101616.75
2023-02-05T09:57:15.698Z,101619.50
2023-02-05T09:59:47.203Z,101634.53
2023-02-05T10:02:40.378Z,101634.19
2023-02-05T10:05:14.911Z,101649.53
2023-02-05T10:08:32.114Z,101629.59
2023-02-05T10:11:02.162Z,101638.06
2023-02-05T10:13:42.424Z,101628.31
2023-02-05T10:16:48.818Z,101631.38
2023-02-05T10:19:48.535Z,101644.97
2023-02-05T10:22:20.506Z,101630.03
2023-02-05T10:25:33.950Z,101632.00
2023-02-05T10:28:38.053Z,101632.31
2023-02-05T10:31:25.830Z,101637.59
2023-02-05T10:34:07.717Z,101621.75
2023-02-05T10:36:38.317Z,101629.53
2023-02-05T10:39:16.254Z,101631.44
2023-02-05T10:41:56.549Z,101637.06
2023-02-05T10:44:40.605Z,101633.75
2023-02-05T10:48:23.156Z,101618.50
2023-02-05T10:51:29.196Z,101610.19
2023-02-05T10:54:01.803Z,101605.44
2023-02-05T10:56:29.461Z,101620.66
2023-02-05T10:59:12.926Z,101618.03
2023-02-05T11:01:57.127Z,101627.06
2023-02-05T11:05:02.128Z,101625.44
2023-02-05T11:07:37.651Z,101612.94
2023-02-05T11:10:31.146Z,101604.19
2023-02-05T11:13:21.537Z,101616.31
2023-02-05T11:16:00.375Z,101606.72
2023-02-05T11:18:47.250Z,101613.13
2023-02-05T11:21:18.506Z,101626.88
2023-02-05T11:23:57.528Z,101600.00
2023-02-05T11:26:30.094Z,101595.69
2023-02-05T11:28:58.539Z,101600.84
2023-02-05T11:31:32.227Z,101604.44
2023-02-05T11:34:08.885Z,101599.34
2023-02-05T11:36:46.925Z,101592.22
2023-02-05T11:39:41.572Z,101603.00
2023-02-05T11:42:21.599Z,101596.13
2023-02-05T11:45:00.482Z,101597.88
2023-02-05T11:47:35.470Z,101583.94
2023-02-05T11:50:05.951Z,101586.25
2023-02-05T11:52:37.624Z,101576.25
2023-02-05T11:55:06.551Z,101560.00
2023-02-05T11:57:39.068Z,101578.06
2023-02-05T12:00:09.953Z,101578.72
2023-02-05T12:02:42.899Z,101579.53
2023-02-05T12:05:13.527Z,101571.88
2023-02-05T12:08:02.710Z,101562.13
2023-02-05T12:11:09.630Z,101570.28
2023-02-05T12:14:18.639Z,101562.13
2023-02-05T12:16:51.963Z,101569.22
2023-02-05T12:19:58.568Z,101569.78
2023-02-05T12:22:58.386Z,101567.59
2023-02-05T12:25:51.820Z,101568.28
2023-02-05T12:29:18.229Z,101566.47
2023-02-05T12:32:08.617Z,101572.69
2023-02-05T12:35:16.180Z,101564.34
2023-02-05T12:38:21.101Z,101567.25
2023-02-05T12:41:30.912Z,101557.56
2023-02-05T12:44:43.115Z,101561.97
2023-02-05T12:47:45.661Z,101564.84
2023-02-05T12:50:47.287Z,101560.44
2023-02-05T12:53:39.065Z,101549.63
2023-02-05T12:56:24.840Z,101555.63
2023-02-05T12:59:14.957Z,101538.13
2023-02-05T13:01:49.911Z,101541.72
2023-02-05T13:04:28.211Z,101549.63
2023-02-05T13:07:44.631Z,101545.22
2023-02-05T13:10:31.405Z,101541.00
2023-02-05T13:13:05.520Z,101539.59
2023-02-05T13:15:46.612Z,101537.06
2023-02-05T13:18:39.568Z,101539.38
2023-02-05T13:21:34.100Z,101536.50
2023-02-05T13:24:57.097Z,101534.25
2023-02-05T13:27:51.969Z,101544.03
2023-02-05T13:30:36.385Z,101533.06
2023-02-05T13:33:07.376Z,101546.28
2023-02-05T13:36:00.918Z,101545.06
2023-02-05T13:38:55.732Z,101556.09
2023-02-05T13:42:10.663Z,101551.13
2023-02-05T13:45:25.713Z,101551.13
2023-02-05T13:48:26.582Z,101549.22
2023-02-05T13:51:46.528Z,101539.06
2023-02-05T13:54:38.980Z,101537.81
2023-02-05T13:58:00.428Z,101528.03
2023-02-05T14:00:29.191Z,101528.75
2023-02-05T14:02:59.013Z,101530.50
2023-02-05T14:05:41.286Z,101530.13
2023-02-05T14:08:27.403Z,101530.50
2023-02-05T14:11:03.068Z,101528.25
2023-02-05T14:13:34.422Z,101530.25
2023-02-05T14:16:33.866Z,101534.88
2023-02-05T14:19:01.260Z,101534.09
2023-02-05T14:21:31.851Z,101539.84
2023-02-05T14:24:02.953Z,101537.84
2023-02-05T14:27:00.456Z,101530.41
2023-02-05T14:29:49.848Z,101536.50
2023-02-05T14:32:27.186Z,101540.16
2023-02-05T14:35:28.756Z,101548.84
2023-02-05T14:38:16.215Z,101546.84
2023-02-05T14:40:43.799Z,101552.50
2023-02-05T14:43:30.947Z,101551.63
2023-02-05T14:46:27.301Z,101557.88
2023-02-05T14:48:58.584Z,101559.84
2023-02-05T14:52:00.295Z,101554.31
2023-02-05T14:54:44.106Z,101562.69
2023-02-05T14:57:57.481Z,101559.50
2023-02-05T15:00:36.318Z,101552.59
2023-02-05T15:03:23.106Z,101554.13
2023-02-05T15:06:11.808Z,101558.84
2023-02-05T15:08:52.541Z,101562.97
2023-02-05T15:11:57.604Z,101562.97
2023-02-05T15:14:33.284Z,101548.06
2023-02-05T15:17:10.356Z,101566.28
2023-02-05T15:20:18.314Z,101560.53
2023-02-05T15:23:26.292Z,101563.16
2023-02-05T15:25:58.811Z,101562.03
2023-02-05T15:28:32.326Z,101566.19
2023-02-05T15:31:22.370Z,101575.94
2023-02-05T15:34:13.622Z,101575.28
2023-02-05T15:36:53.415Z,101553.28
2023-02-05T15:39:47.728Z,101570.00
2023-02-05T15:42:22.477Z,101573.53
2023-02-05T15:44:50.337Z,101587.31
2023-02-05T15:47:26.952Z,101584.56
2023-02-05T15:50:00.893Z,101578.00
2023-02-05T15:52:32.341Z,101590.41
2023-02-05T15:55:10.586Z,101595.56
2023-02-05T15:57:38.737Z,101595.59
2023-02-05T16:00:10.376Z,101585.72
2023-02-05T16:02:40.102Z,101587.91
2023-02-05T16:05:19.782Z,101595.47
2023-02-05T16:07:55.172Z,101593.50
2023-02-05T16:10:30.837Z,101592.47
2023-02-05T16:13:16.696Z,101592.25
2023-02-05T16:16:08.962Z,101595.69
2023-02-05T16:18:50.593Z,101597.50
2023-02-05T16:21:40.961Z,101596.78
2023-02-05T16:24:35.445Z,101597.19
2023-02-05T16:27:20.406Z,101603.13
2023-02-05T16:29:55.410Z,101602.34
2023-02-05T16:32:33.657Z,101606.00
2023-02-05T16:35:04.509Z,101601.69
2023-02-05T16:37:33.168Z,101607.16
2023-02-05T16:40:06.493Z,101601.31
2023-02-05T16:42:44.343Z,101611.75
2023-02-05T16:45:19.898Z,101617.91
2023-02-05T16:48:29.536Z,101617.69
2023-02-05T16:50:57.933Z,101622.50
2023-02-05T16:53:36.846Z,101623.16
2023-02-05T16:56:12.866Z,101619.50
2023-02-05T16:59:14.507Z,101615.25
2023-02-05T17:01:45.142Z,101622.72
2023-02-05T17:04:35.497Z,101626.25
2023-02-05T17:07:15.196Z,101625.69
2023-02-05T17:09:43.404Z,101629.56
2023-02-05T17:12:20.203Z,101635.66
2023-02-05T17:15:04.572Z,101624.91
2023-02-05T17:17:32.688Z,101630.97
2023-02-05T17:20:26.483Z,101634.72
2023-02-05T17:23:03.366Z,101626.59
2023-02-05T17:25:55.827Z,101627.06
2023-02-05T17:28:27.380Z,101628.66
2023-02-05T17:31:00.345Z,101622.63
2023-02-05T17:33:29.629Z,101645.88
2023-02-05T17:35:57.551Z,101638.75
2023-02-05T17:38:25.086Z,101645.28
2023-02-05T17:41:16.020Z,101640.22
2023-02-05T17:43:43.595Z,101649.31
2023-02-05T17:46:14.510Z,101640.00
2023-02-05T17:48:42.398Z,101648.13
2023-02-05T17:51:21.706Z,101653.06
2023-02-05T17:53:50.448Z,101653.97
2023-02-05T17:56:19.592Z,101659.25
2023-02-05T17:58:47.971Z,101654.41
2023-02-05T18:01:16.125Z,101662.00
2023-02-05T18:03:43.850Z,101661.19
2023-02-05T18:06:18.230Z,101654.31
2023-02-05T18:08:46.134Z,101676.19
2023-02-05T18:11:13.911Z,101664.41
2023-02-05T18:13:41.692Z,101662.69
2023-02-05T18:16:12.145Z,101670.72
2023-02-05T18:18:41.886Z,101676.78
2023-02-05T18:21:09.795Z,101680.59
2023-02-05T18:23:37.378Z,101679.41
2023-02-05T18:26:06.697Z,101682.50
2023-02-05T18:28:35.351Z,101688.69
2023-02-05T18:31:09.711Z,101683.53
2023-02-05T18:33:37.747Z,101691.44
2023-02-05T18:36:11.354Z,101678.41
2023-02-05T18:38:40.205Z,101683.44
2023-02-05T18:41:11.884Z,101692.28
2023-02-05T18:43:39.904Z,101688.72
2023-02-05T18:46:11.187Z,101700.81
2023-02-05T18:48:40.945Z,101700.13
2023-02-05T18:51:12.511Z,101694.50
2023-02-05T18:53:40.980Z,101690.63
2023-02-05T18:56:31.081Z,101688.00
2023-02-05T18:59:05.826Z,101684.09
2023-02-05T19:01:39.681Z,101671.72
2023-02-05T19:04:13.772Z,101676.97
2023-02-05T19:06:44.089Z,101687.41
2023-02-05T19:09:12.353Z,101695.94
2023-02-05T19:11:41.545Z,101711.88
2023-02-05T19:14:12.586Z,101704.66
2023-02-05T19:16:42.010Z,101702.59
2023-02-05T19:19:13.279Z,101702.25
2023-02-05T19:21:43.379Z,101709.91
2023-02-05T19:24:13.823Z,101715.03
2023-02-05T19:26:44.226Z,101709.63
2023-02-05T19:29:18.440Z,101718.41
2023-02-05T19:31:47.436Z,101703.53
2023-02-05T19:34:16.616Z,101714.50
2023-02-05T19:36:44.510Z,101714.50
2023-02-05T19:39:14.484Z,101722.84
2023-02-05T19:41:45.677Z,101712.44
2023-02-05T19:44:13.620Z,101711.91
2023-02-05T19:46:47.734Z,101705.94
2023-02-05T19:49:19.638Z,101721.41
2023-02-05T19:51:51.396Z,101712.34
2023-02-05T19:54:21.619Z,101716.56
2023-02-05T19:56:50.744Z,101722.88
2023-02-05T19:59:19.612Z,101722.28
2023-02-05T20:01:49.904Z,101719.91
2023-02-05T20:04:28.566Z,101716.63
2023-02-05T20:06:58.943Z,101724.44
2023-02-05T20:12:34.122Z,101726.84
2023-02-05T20:15:01.957Z,101729.03
2023-02-05T20:17:30.090Z,101726.84
2023-02-05T20:20:10.293Z,101741.16
2023-02-05T20:22:43.066Z,101736.06
2023-02-05T20:25:14.018Z,101753.50
2023-02-05T20:27:42.435Z,101749.66
2023-02-05T20:30:32.501Z,101763.28
2023-02-05T20:33:00.335Z,101766.53
2023-02-05T20:35:28.222Z,101768.47
2023-02-05T20:37:56.242Z,101753.91
2023-02-05T20:40:24.191Z,101753.09
2023-02-05T20:42:53.224Z,101766.47
2023-02-05T20:45:21.100Z,101768.31
2023-02-05T20:47:49.441Z,101768.91
2023-02-05T20:50:17.457Z,101775.66
2023-02-05T20:52:45.905Z,101785.47
2023-02-05T20:55:14.065Z,101773.97
2023-02-05T20:57:41.988Z,101779.09
2023-02-05T21:00:10.902Z,101772.66
2023-02-05T21:02:39.022Z,101769.66
2023-02-05T21:05:07.046Z,101765.88
2023-02-05T21:07:36.943Z,101761.91
2023-02-05T21:10:06.265Z,101763.19
2023-02-05T21:12:34.066Z,101755.94
2023-02-05T21:15:01.578Z,101757.78
2023-02-05T21:17:29.511Z,101764.84
2023-02-05T21:19:57.368Z,101768.22
2023-02-05T21:22:25.517Z,101770.41
2023-02-05T21:24:53.632Z,101773.16
2023-02-05T21:27:24.872Z,101769.75
2023-02-05T21:29:52.613Z,101777.28
2023-02-05T21:32:21.037Z,101772.44
2023-02-05T21:34:49.125Z,101772.66
2023-02-05T21:37:19.956Z,101769.22
2023-02-05T21:39:50.875Z,101778.00
2023-02-05T21:42:21.236Z,101780.16
2023-02-05T21:44:51.021Z,101774.59
2023-02-05T21:47:19.590Z,101766.56
2023-02-05T21:49:49.764Z,101770.94
2023-02-05T21:52:18.612Z,101759.97
2023-02-05T21:54:50.757Z,101768.44
2023-02-05T21:57:19.508Z,101767.00
2023-02-05T21:59:49.620Z,101762.03
2023-02-05T22:02:19.070Z,101765.34
2023-02-05T22:04:51.808Z,101762.50
2023-02-05T22:07:23.748Z,101756.78
2023-02-05T22:09:53.314Z,101751.94
2023-02-05T22:12:24.729Z,101747.69
2023-02-05T22:15:01.629Z,101760.09
2023-02-05T22:18:12.942Z,101753.97
2023-02-05T22:23:57.155Z,101772.59
2023-02-05T22:26:43.869Z,101770.94
2023-02-05T22:29:24.123Z,101776.25
2023-02-05T22:31:58.459Z,101775.13
2023-02-05T22:34:29.772Z,101765.81
2023-02-05T22:36:59.840Z,101772.53
2023-02-05T22:39:29.482Z,101772.53
2023-02-05T22:41:58.158Z,101770.28
2023-02-05T22:44:37.101Z,101770.88
2023-02-05T22:47:45.005Z,101777.03
2023-02-05T22:50:13.828Z,101773.81
2023-02-05T22:52:41.311Z,101765.78
2023-02-05T22:55:09.249Z,101756.50
2023-02-05T22:57:36.800Z,101761.19
2023-02-05T23:00:05.350Z,101764.97
2023-02-05T23:02:32.914Z,101769.22
2023-02-05T23:05:00.802Z,101771.03
2023-02-05T23:07:28.256Z,101770.66
2023-02-05T23:09:56.730Z,101774.09
2023-02-05T23:12:24.194Z,101778.34
2023-02-05T23:14:52.178Z,101776.34
2023-02-05T23:17:19.647Z,101772.75
2023-02-05T23:19:52.484Z,101772.53
2023-02-05T23:22:19.960Z,101775.53
2023-02-05T23:24:47.856Z,101765.28
2023-02-05T23:27:15.435Z,101765.56
2023-02-05T23:29:43.852Z,101766.59
2023-02-05T23:32:15.081Z,101770.06
2023-02-05T23:34:43.028Z,101773.06
2023-02-05T23:37:11.822Z,101774.19
2023-02-05T23:39:39.856Z,101780.03
2023-02-05T23:42:07.394Z,101779.41
2023-02-05T23:44:35.210Z,101781.50
2023-02-05T23:47:02.708Z,101784.78
2023-02-05T23:49:30.574Z,101788.00
2023-02-05T23:51:58.099Z,101785.22
2023-02-05T23:54:26.134Z,101788.69
2023-02-05T23:56:54.966Z,101774.34
2023-02-05T23:59:22.971Z,101778.56
